Time;durP1;ratioP1;P1;durP2;ratioP2;P2;SDS_P1;SDS_P2;PMS_P1;PMS_P2;Temp;Humidity;BMP_temperature;BMP_pressure;BME280_temperature;BME280_humidity;BME280_pressure;Samples;Min_cycle;Max_cycle;Signal;HPM_P1;HPM_P2
2024/03/07 00:01:42;0.00;0.00;0.62;0.00;0.00;0.62;4.50;4.10;;;23.10;22.20;;;;;;2259816;61;20470;-67
2024/03/07 00:04:27;0.00;0.00;0.62;0.00;0.00;0.62;4.37;3.87;;;23.00;22.20;;;;;;2259823;61;20369;-66
2024/03/07 00:07:12;0.00;0.00;0.62;0.00;0.00;0.62;3.93;3.53;;;23.00;22.20;;;;;;2259896;61;20915;-66
2024/03/07 00:09:58;0.00;0.00;0.62;0.00;0.00;0.62;4.93;4.20;;;23.00;22.20;;;;;;2259784;61;20449;-66
2024/03/07 00:12:43;0.00;0.00;0.62;0.00;0.00;0.62;4.40;4.00;;;23.00;22.20;;;;;;2260083;61;20871;-66
2024/03/07 00:15:30;0.00;0.00;0.62;0.00;0.00;0.62;3.67;3.27;;;23.00;22.20;;;;;;2259817;61;20432;-66
2024/03/07 00:18:15;0.00;0.00;0.62;0.00;0.00;0.62;4.20;3.77;;;23.00;22.20;;;;;;2259770;61;20372;-65
2024/03/07 00:20:59;0.00;0.00;0.62;0.00;0.00;0.62;4.20;3.50;;;23.00;22.20;;;;;;2260088;61;20428;-66
2024/03/07 00:23:44;0.00;0.00;0.62;0.00;0.00;0.62;5.13;4.00;;;23.00;22.20;;;;;;2259676;61;20384;-64
2024/03/07 00:26:30;0.00;0.00;0.62;0.00;0.00;0.62;5.20;3.93;;;23.00;22.20;;;;;;2259768;61;20388;-68
2024/03/07 00:29:17;0.00;0.00;0.62;0.00;0.00;0.62;4.43;4.03;;;23.00;22.20;;;;;;2259399;61;20901;-65
2024/03/07 00:32:02;0.00;0.00;0.62;0.00;0.00;0.62;4.60;3.87;;;23.00;22.20;;;;;;2260456;61;20364;-65
2024/03/07 00:34:48;0.00;0.00;0.62;0.00;0.00;0.62;3.67;3.37;;;23.00;22.20;;;;;;2259865;61;20376;-66
2024/03/07 00:37:32;0.00;0.00;0.62;0.00;0.00;0.62;3.80;3.40;;;23.00;22.20;;;;;;2259708;61;20423;-65
2024/03/07 00:40:17;0.00;0.00;0.62;0.00;0.00;0.62;4.70;3.80;;;23.00;22.20;;;;;;2256756;61;20384;-65
2024/03/07 00:43:03;0.00;0.00;0.62;0.00;0.00;0.62;4.70;4.30;;;23.00;22.20;;;;;;2260158;61;20361;-66
2024/03/07 00:45:51;0.00;0.00;0.62;0.00;0.00;0.62;3.60;3.30;;;23.00;22.20;;;;;;2260474;61;20465;-62
2024/03/07 00:48:36;0.00;0.00;0.62;0.00;0.00;0.62;3.70;3.40;;;22.90;22.10;;;;;;2260506;61;20392;-65
2024/03/07 00:51:20;0.00;0.00;0.62;0.00;0.00;0.62;4.60;3.60;;;22.90;22.10;;;;;;2259982;61;20444;-64
2024/03/07 00:54:06;0.00;0.00;0.62;0.00;0.00;0.62;4.77;3.57;;;22.90;22.10;;;;;;2260591;61;20369;-65
2024/03/07 00:56:51;0.00;0.00;0.62;0.00;0.00;0.62;4.90;3.80;;;23.00;22.20;;;;;;2322181;58;20384;-66
2024/03/07 00:59:37;0.00;0.00;0.62;0.00;0.00;0.62;4.10;3.57;;;22.90;22.10;;;;;;2260446;61;20357;-65
2024/03/07 01:02:22;0.00;0.00;0.62;0.00;0.00;0.62;3.60;3.30;;;23.00;22.20;;;;;;2414954;53;20396;-66
2024/03/07 01:05:09;0.00;0.00;0.62;0.00;0.00;0.62;4.40;3.50;;;22.90;22.00;;;;;;2257388;61;20404;-64
2024/03/07 01:07:55;0.00;0.00;0.62;0.00;0.00;0.62;4.50;3.70;;;22.90;22.00;;;;;;2264082;55;20815;-69
2024/03/07 01:10:40;0.00;0.00;0.62;0.00;0.00;0.62;3.50;3.20;;;22.90;22.00;;;;;;2260405;61;20877;-69
2024/03/07 01:13:24;0.00;0.00;0.62;0.00;0.00;0.62;4.13;3.37;;;22.90;22.10;;;;;;2259084;61;20866;-66
2024/03/07 01:16:11;0.00;0.00;0.62;0.00;0.00;0.62;3.40;3.00;;;22.90;22.00;;;;;;2263665;61;20396;-66
2024/03/07 01:18:55;0.00;0.00;0.62;0.00;0.00;0.62;4.10;3.47;;;22.90;22.00;;;;;;2263265;61;20445;-69
2024/03/07 01:21:40;0.00;0.00;0.62;0.00;0.00;0.62;3.80;3.40;;;22.90;22.00;;;;;;2262928;61;20384;-68
2024/03/07 01:24:25;0.00;0.00;0.62;0.00;0.00;0.62;3.60;3.30;;;22.90;22.00;;;;;;2263590;61;20364;-68
2024/03/07 01:27:10;0.00;0.00;0.62;0.00;0.00;0.62;3.50;2.87;;;22.90;22.10;;;;;;2263527;61;20488;-69
2024/03/07 01:29:55;0.00;0.00;0.62;0.00;0.00;0.62;3.93;3.40;;;22.90;22.00;;;;;;2263156;61;20525;-68
2024/03/07 01:32:40;0.00;0.00;0.62;0.00;0.00;0.62;4.10;3.70;;;22.90;22.00;;;;;;2263140;61;20406;-68
2024/03/07 01:35:25;0.00;0.00;0.62;0.00;0.00;0.62;4.30;3.43;;;22.90;22.10;;;;;;2263618;61;20415;-68
2024/03/07 01:38:11;0.00;0.00;0.62;0.00;0.00;0.62;4.03;3.60;;;22.80;22.00;;;;;;2780201;45;20424;-68
2024/03/07 01:40:55;0.00;0.00;0.62;0.00;0.00;0.62;3.97;3.40;;;22.90;22.10;;;;;;2262190;61;20364;-68
2024/03/07 01:43:40;0.00;0.00;0.62;0.00;0.00;0.62;3.87;3.47;;;22.80;22.00;;;;;;2259994;61;20427;-68
2024/03/07 01:46:25;0.00;0.00;0.62;0.00;0.00;0.62;4.47;3.67;;;22.80;22.00;;;;;;2260249;61;20356;-68
2024/03/07 01:49:12;0.00;0.00;0.62;0.00;0.00;0.62;3.40;3.10;;;22.90;22.10;;;;;;2779928;45;20451;-68
2024/03/07 01:51:57;0.00;0.00;0.62;0.00;0.00;0.62;3.83;3.37;;;22.80;22.00;;;;;;2262030;61;20376;-68
2024/03/07 01:54:42;0.00;0.00;0.62;0.00;0.00;0.62;4.03;3.43;;;22.80;22.00;;;;;;2263203;61;20367;-68
2024/03/07 01:57:28;0.00;0.00;0.62;0.00;0.00;0.62;3.93;3.27;;;22.80;22.00;;;;;;2263552;61;20387;-68
2024/03/07 02:00:13;0.00;0.00;0.62;0.00;0.00;0.62;3.50;2.77;;;22.80;22.10;;;;;;2263185;61;20982;-68
2024/03/07 02:02:58;0.00;0.00;0.62;0.00;0.00;0.62;3.20;2.90;;;22.80;22.10;;;;;;2263046;61;20407;-68
2024/03/07 02:05:44;0.00;0.00;0.62;0.00;0.00;0.62;2.90;2.60;;;22.80;22.10;;;;;;2263172;61;20941;-68
2024/03/07 02:08:31;0.00;0.00;0.62;0.00;0.00;0.62;3.03;2.70;;;22.80;22.10;;;;;;2263279;61;20411;-68
2024/03/07 02:11:16;0.00;0.00;0.62;0.00;0.00;0.62;3.93;2.87;;;22.80;22.10;;;;;;2262989;61;20368;-68
2024/03/07 02:14:02;0.00;0.00;0.62;0.00;0.00;0.62;3.90;3.50;;;22.80;22.10;;;;;;2262957;61;20372;-68
2024/03/07 02:16:47;0.00;0.00;0.62;0.00;0.00;0.62;3.10;2.80;;;22.80;22.60;;;;;;2263359;61;20802;-68
2024/03/07 02:19:32;0.00;0.00;0.62;0.00;0.00;0.62;4.07;3.07;;;22.80;22.00;;;;;;2260135;61;20371;-68
2024/03/07 02:22:18;0.00;0.00;0.62;0.00;0.00;0.62;2.87;2.40;;;22.80;22.00;;;;;;2262865;61;20399;-68
2024/03/07 02:25:03;0.00;0.00;0.62;0.00;0.00;0.62;3.13;2.83;;;22.80;22.00;;;;;;2263111;61;20375;-67
2024/03/07 02:27:47;0.00;0.00;0.62;0.00;0.00;0.62;2.93;2.37;;;22.80;22.00;;;;;;2262967;61;20476;-67
2024/03/07 02:30:32;0.00;0.00;0.62;0.00;0.00;0.62;3.20;2.90;;;22.70;21.90;;;;;;2259832;61;20352;-67
2024/03/07 02:33:17;0.00;0.00;0.62;0.00;0.00;0.62;4.60;2.80;;;22.70;22.00;;;;;;2262821;61;20426;-66
2024/03/07 02:36:03;0.00;0.00;0.62;0.00;0.00;0.62;2.83;2.53;;;22.70;22.00;;;;;;2262878;61;20384;-66
2024/03/07 02:38:49;0.00;0.00;0.62;0.00;0.00;0.62;3.40;2.87;;;22.70;22.00;;;;;;2262810;61;20430;-66
2024/03/07 02:41:34;0.00;0.00;0.62;0.00;0.00;0.62;3.27;2.97;;;22.70;22.00;;;;;;2263312;61;20399;-67
2024/03/07 02:44:19;0.00;0.00;0.62;0.00;0.00;0.62;3.20;2.90;;;22.70;21.90;;;;;;2262957;61;20391;-67
2024/03/07 02:47:05;0.00;0.00;0.62;0.00;0.00;0.62;3.30;2.90;;;22.70;21.90;;;;;;2262886;61;20431;-67
2024/03/07 02:49:49;0.00;0.00;0.62;0.00;0.00;0.62;6.30;2.80;;;22.70;21.90;;;;;;2262793;61;20347;-67
2024/03/07 02:52:34;0.00;0.00;0.62;0.00;0.00;0.62;3.10;2.50;;;22.70;21.90;;;;;;2263149;61;20869;-67
2024/03/07 02:55:20;0.00;0.00;0.62;0.00;0.00;0.62;3.63;3.23;;;22.70;21.90;;;;;;2262898;61;20376;-67
2024/03/07 02:58:06;0.00;0.00;0.62;0.00;0.00;0.62;3.23;2.93;;;22.70;21.90;;;;;;2262943;61;20397;-67
2024/03/07 03:00:59;0.00;0.00;0.62;0.00;0.00;0.62;3.40;2.77;;;22.70;21.90;;;;;;2262964;61;20353;-68
2024/03/07 03:03:44;0.00;0.00;0.62;0.00;0.00;0.62;3.27;2.97;;;22.70;21.90;;;;;;2263359;61;20801;-67
2024/03/07 03:06:28;0.00;0.00;0.62;0.00;0.00;0.62;4.00;2.90;;;22.70;21.90;;;;;;2262716;61;20364;-67
2024/03/07 03:09:17;0.00;0.00;0.62;0.00;0.00;0.62;2.70;2.50;;;22.70;21.90;;;;;;2262569;61;20457;-67
2024/03/07 03:12:03;0.00;0.00;0.62;0.00;0.00;0.62;2.87;2.17;;;22.70;21.90;;;;;;2262858;61;20762;-67
2024/03/07 03:14:47;0.00;0.00;0.62;0.00;0.00;0.62;2.87;2.53;;;22.70;21.90;;;;;;2263179;61;20415;-67
2024/03/07 03:17:32;0.00;0.00;0.62;0.00;0.00;0.62;2.67;2.43;;;22.70;21.90;;;;;;2262847;61;20473;-67
2024/03/07 03:20:25;0.00;0.00;0.62;0.00;0.00;0.62;3.47;2.77;;;22.70;21.90;;;;;;2262576;61;20759;-67
2024/03/07 03:23:13;0.00;0.00;0.62;0.00;0.00;0.62;3.13;2.43;;;22.70;21.90;;;;;;2262716;61;20409;-67
2024/03/07 03:25:58;0.00;0.00;0.62;0.00;0.00;0.62;3.33;2.80;;;22.70;21.90;;;;;;2263227;61;20341;-67
2024/03/07 03:28:44;0.00;0.00;0.62;0.00;0.00;0.62;2.70;2.47;;;22.70;21.90;;;;;;2262621;61;20395;-67
2024/03/07 03:31:29;0.00;0.00;0.62;0.00;0.00;0.62;3.00;2.40;;;22.70;21.90;;;;;;2262963;61;20927;-67
2024/03/07 03:34:14;0.00;0.00;0.62;0.00;0.00;0.62;3.03;2.47;;;22.70;21.90;;;;;;2262757;61;20363;-67
2024/03/07 03:36:58;0.00;0.00;0.62;0.00;0.00;0.62;2.60;2.30;;;22.70;21.90;;;;;;2263181;61;20475;-67
2024/03/07 03:39:43;0.00;0.00;0.62;0.00;0.00;0.62;2.97;2.33;;;22.70;21.90;;;;;;2262973;61;20943;-67
2024/03/07 03:42:28;0.00;0.00;0.62;0.00;0.00;0.62;2.87;2.30;;;22.70;21.90;;;;;;2262867;61;20364;-67
2024/03/07 03:45:15;0.00;0.00;0.62;0.00;0.00;0.62;3.20;2.80;;;22.70;21.90;;;;;;2263302;61;20384;-67
2024/03/07 03:48:00;0.00;0.00;0.62;0.00;0.00;0.62;2.60;2.20;;;22.70;21.90;;;;;;2263837;61;20804;-67
2024/03/07 03:50:46;0.00;0.00;0.62;0.00;0.00;0.62;3.60;2.57;;;22.70;21.90;;;;;;2263433;61;20392;-67
2024/03/07 03:53:31;0.00;0.00;0.62;0.00;0.00;0.62;3.33;2.30;;;22.60;21.80;;;;;;2263774;61;20760;-68
2024/03/07 03:56:15;0.00;0.00;0.62;0.00;0.00;0.62;2.73;2.10;;;22.60;21.80;;;;;;2263716;61;20432;-67
2024/03/07 03:59:00;0.00;0.00;0.62;0.00;0.00;0.62;2.70;2.37;;;22.60;21.80;;;;;;2263990;61;20409;-67
2024/03/07 04:01:48;0.00;0.00;0.62;0.00;0.00;0.62;3.90;2.57;;;22.70;21.90;;;;;;2263589;61;20426;-67
2024/03/07 04:04:32;0.00;0.00;0.62;0.00;0.00;0.62;2.80;2.30;;;22.70;21.90;;;;;;2263629;61;20364;-67
2024/03/07 04:07:17;0.00;0.00;0.62;0.00;0.00;0.62;2.40;2.20;;;22.60;21.80;;;;;;2263601;61;20388;-68
2024/03/07 04:10:03;0.00;0.00;0.62;0.00;0.00;0.62;2.97;2.37;;;22.60;21.80;;;;;;2263922;61;20780;-67
2024/03/07 04:12:48;0.00;0.00;0.62;0.00;0.00;0.62;3.10;2.80;;;22.60;21.80;;;;;;2263350;61;20375;-67
2024/03/07 04:15:33;0.00;0.00;0.62;0.00;0.00;0.62;2.80;2.33;;;22.60;21.80;;;;;;2263764;61;20444;-67
2024/03/07 04:18:20;0.00;0.00;0.62;0.00;0.00;0.62;3.23;2.37;;;22.60;21.80;;;;;;2263716;61;20375;-68
2024/03/07 04:21:04;0.00;0.00;0.62;0.00;0.00;0.62;2.90;2.50;;;22.60;21.80;;;;;;2263962;61;20857;-67
2024/03/07 04:23:49;0.00;0.00;0.62;0.00;0.00;0.62;3.07;2.77;;;22.60;21.80;;;;;;2263445;61;20395;-67
2024/03/07 04:26:34;0.00;0.00;0.62;0.00;0.00;0.62;3.60;2.80;;;22.60;21.80;;;;;;2263599;61;20916;-67
2024/03/07 04:29:18;0.00;0.00;0.62;0.00;0.00;0.62;2.43;2.23;;;22.60;21.80;;;;;;2263744;61;20434;-66
2024/03/07 04:32:04;0.00;0.00;0.62;0.00;0.00;0.62;3.40;2.73;;;22.60;21.80;;;;;;2677276;45;20371;-67
2024/03/07 04:34:51;0.00;0.00;0.62;0.00;0.00;0.62;3.23;2.80;;;22.60;21.80;;;;;;2263289;61;20418;-67
2024/03/07 04:37:38;0.00;0.00;0.62;0.00;0.00;0.62;2.47;2.27;;;22.60;21.80;;;;;;2263459;61;20451;-67
2024/03/07 04:40:22;0.00;0.00;0.62;0.00;0.00;0.62;2.70;2.33;;;22.60;21.80;;;;;;2263744;61;20364;-67
2024/03/07 04:43:07;0.00;0.00;0.62;0.00;0.00;0.62;2.40;2.00;;;22.60;21.80;;;;;;2601738;45;20364;-67
2024/03/07 04:45:52;0.00;0.00;0.62;0.00;0.00;0.62;2.90;2.43;;;22.60;21.80;;;;;;2262408;61;20360;-67
2024/03/07 04:48:37;0.00;0.00;0.62;0.00;0.00;0.62;2.90;2.57;;;22.60;21.80;;;;;;2263375;61;20396;-67
2024/03/07 04:51:23;0.00;0.00;0.62;0.00;0.00;0.62;3.00;2.60;;;22.60;21.80;;;;;;2263721;61;20360;-67
2024/03/07 04:54:07;0.00;0.00;0.62;0.00;0.00;0.62;2.40;2.17;;;22.60;21.80;;;;;;2263664;61;20783;-67
2024/03/07 04:56:53;0.00;0.00;0.62;0.00;0.00;0.62;2.87;2.57;;;22.60;21.80;;;;;;2263154;61;20452;-67
2024/03/07 04:59:38;0.00;0.00;0.62;0.00;0.00;0.62;2.80;2.37;;;22.60;21.80;;;;;;2263559;61;20415;-67
2024/03/07 05:02:23;0.00;0.00;0.62;0.00;0.00;0.62;2.60;2.37;;;22.60;21.80;;;;;;2264107;61;20415;-67
2024/03/07 05:05:07;0.00;0.00;0.62;0.00;0.00;0.62;3.03;2.47;;;22.60;21.80;;;;;;2263541;61;20452;-67
2024/03/07 05:07:55;0.00;0.00;0.62;0.00;0.00;0.62;2.63;2.40;;;22.60;21.80;;;;;;2263413;61;20428;-67
2024/03/07 05:10:41;0.00;0.00;0.62;0.00;0.00;0.62;2.87;2.57;;;22.50;21.80;;;;;;2263520;61;20368;-68
2024/03/07 05:13:26;0.00;0.00;0.62;0.00;0.00;0.62;3.53;2.83;;;22.50;21.70;;;;;;2263776;61;20404;-67
2024/03/07 05:16:11;0.00;0.00;0.62;0.00;0.00;0.62;3.07;2.50;;;22.50;21.70;;;;;;2263572;61;20868;-67
2024/03/07 05:18:59;0.00;0.00;0.62;0.00;0.00;0.62;3.33;2.80;;;22.50;21.70;;;;;;2263142;61;20411;-67
2024/03/07 05:21:43;0.00;0.00;0.62;0.00;0.00;0.62;2.90;2.30;;;22.50;21.80;;;;;;2263671;61;20705;-67
2024/03/07 05:24:30;0.00;0.00;0.62;0.00;0.00;0.62;2.70;2.30;;;22.60;21.80;;;;;;2263724;61;20395;-67
2024/03/07 05:27:15;0.00;0.00;0.62;0.00;0.00;0.62;2.97;2.47;;;22.50;21.80;;;;;;2263336;61;20810;-67
2024/03/07 05:30:00;0.00;0.00;0.62;0.00;0.00;0.62;3.57;2.77;;;22.50;21.80;;;;;;2263424;61;20359;-67
2024/03/07 05:32:44;0.00;0.00;0.62;0.00;0.00;0.62;3.77;3.47;;;22.50;21.80;;;;;;2263230;61;20463;-67
2024/03/07 05:35:29;0.00;0.00;0.62;0.00;0.00;0.62;3.00;2.33;;;22.50;21.70;;;;;;2260387;61;20817;-67
2024/03/07 05:38:13;0.00;0.00;0.62;0.00;0.00;0.62;3.67;2.50;;;22.50;21.70;;;;;;2263455;61;20439;-67
2024/03/07 05:41:01;0.00;0.00;0.62;0.00;0.00;0.62;3.20;2.90;;;22.50;22.30;;;;;;2258728;61;20459;-67
2024/03/07 05:43:45;0.00;0.00;0.62;0.00;0.00;0.62;3.10;2.60;;;22.50;21.70;;;;;;2262557;61;20376;-67
2024/03/07 05:46:30;0.00;0.00;0.62;0.00;0.00;0.62;2.67;2.43;;;22.50;21.70;;;;;;2263579;61;20436;-67
2024/03/07 05:49:15;0.00;0.00;0.62;0.00;0.00;0.62;2.73;2.43;;;22.50;21.70;;;;;;2263225;61;20799;-67
2024/03/07 05:52:00;0.00;0.00;0.62;0.00;0.00;0.62;3.00;2.50;;;22.50;21.70;;;;;;2263506;61;20360;-67
2024/03/07 05:54:44;0.00;0.00;0.62;0.00;0.00;0.62;3.30;2.73;;;22.50;21.80;;;;;;2263179;61;20392;-68
2024/03/07 05:57:31;0.00;0.00;0.62;0.00;0.00;0.62;4.13;3.10;;;22.50;21.80;;;;;;2263607;61;20380;-67
2024/03/07 06:00:26;0.00;0.00;0.62;0.00;0.00;0.62;3.80;3.30;;;22.50;21.80;;;;;;2263417;61;20411;-67
2024/03/07 06:03:13;0.00;0.00;0.62;0.00;0.00;0.62;3.47;3.00;;;22.50;21.80;;;;;;2263232;61;20387;-67
2024/03/07 06:05:58;0.00;0.00;0.62;0.00;0.00;0.62;4.10;3.20;;;22.50;22.30;;;;;;2263385;61;20371;-67
2024/03/07 06:08:44;0.00;0.00;0.62;0.00;0.00;0.62;4.03;3.23;;;22.50;21.80;;;;;;2263285;61;20830;-67
2024/03/07 06:11:29;0.00;0.00;0.62;0.00;0.00;0.62;5.17;3.90;;;22.50;21.80;;;;;;2263081;61;20414;-67
2024/03/07 06:14:16;0.00;0.00;0.62;0.00;0.00;0.62;5.30;4.20;;;22.50;21.70;;;;;;2263206;61;20866;-67
2024/03/07 06:17:00;0.00;0.00;0.62;0.00;0.00;0.62;4.90;4.37;;;22.50;21.80;;;;;;2263234;61;20407;-67
2024/03/07 06:19:45;0.00;0.00;0.62;0.00;0.00;0.62;4.50;3.60;;;22.50;21.80;;;;;;2263354;61;20404;-67
2024/03/07 06:22:29;0.00;0.00;0.62;0.00;0.00;0.62;5.47;4.60;;;22.50;21.80;;;;;;2263285;61;20364;-67
2024/03/07 06:25:19;0.00;0.00;0.62;0.00;0.00;0.62;5.47;4.20;;;22.50;21.80;;;;;;2263120;61;20950;-68
2024/03/07 06:28:11;0.00;0.00;0.62;0.00;0.00;0.62;5.50;3.40;;;22.50;21.80;;;;;;2263205;61;20439;-67
2024/03/07 06:30:57;0.00;0.00;0.62;0.00;0.00;0.62;6.63;4.30;;;22.50;22.30;;;;;;2263557;61;20395;-68
2024/03/07 06:33:41;0.00;0.00;0.62;0.00;0.00;0.62;4.37;3.57;;;22.50;21.80;;;;;;2263082;61;20377;-67
2024/03/07 06:36:26;0.00;0.00;0.62;0.00;0.00;0.62;4.17;3.53;;;22.50;21.70;;;;;;2263158;61;20368;-67
2024/03/07 06:39:10;0.00;0.00;0.62;0.00;0.00;0.62;4.17;3.77;;;22.50;21.80;;;;;;2263116;61;20928;-68
2024/03/07 06:41:56;0.00;0.00;0.62;0.00;0.00;0.62;4.90;4.33;;;22.50;21.80;;;;;;2263336;61;20359;-68
2024/03/07 06:44:40;0.00;0.00;0.62;0.00;0.00;0.62;4.60;3.97;;;22.50;21.80;;;;;;2263139;61;20371;-68
2024/03/07 06:47:26;0.00;0.00;0.62;0.00;0.00;0.62;4.80;3.87;;;22.50;21.80;;;;;;2262730;61;20392;-67
2024/03/07 06:50:14;0.00;0.00;0.62;0.00;0.00;0.62;4.37;3.70;;;22.50;21.80;;;;;;2262937;61;20371;-67
2024/03/07 06:52:59;0.00;0.00;0.62;0.00;0.00;0.62;4.50;3.30;;;22.50;21.80;;;;;;2262919;61;20400;-68
2024/03/07 06:55:43;0.00;0.00;0.62;0.00;0.00;0.62;6.27;4.07;;;22.40;21.70;;;;;;2262992;61;20376;-68
2024/03/07 06:58:27;0.00;0.00;0.62;0.00;0.00;0.62;6.50;4.90;;;22.40;21.70;;;;;;2262797;61;20427;-68
2024/03/07 07:01:15;0.00;0.00;0.62;0.00;0.00;0.62;5.67;4.63;;;22.40;21.70;;;;;;2281559;58;20881;-68
2024/03/07 07:04:03;0.00;0.00;0.62;0.00;0.00;0.62;6.90;4.77;;;22.40;21.70;;;;;;2701821;45;20415;-68
2024/03/07 07:06:48;0.00;0.00;0.62;0.00;0.00;0.62;6.67;5.37;;;22.40;21.70;;;;;;2262172;61;21018;-68
2024/03/07 07:09:32;0.00;0.00;0.62;0.00;0.00;0.62;6.83;5.70;;;22.50;21.80;;;;;;2262918;61;20367;-68
2024/03/07 07:12:18;0.00;0.00;0.62;0.00;0.00;0.62;6.53;5.37;;;22.40;21.70;;;;;;2262430;61;20392;-67
2024/03/07 07:15:04;0.00;0.00;0.62;0.00;0.00;0.62;7.13;5.67;;;22.40;21.70;;;;;;2263186;61;20415;-68
2024/03/07 07:17:49;0.00;0.00;0.62;0.00;0.00;0.62;8.90;6.50;;;22.50;21.80;;;;;;2262832;61;20791;-67
2024/03/07 07:20:36;0.00;0.00;0.62;0.00;0.00;0.62;7.40;6.40;;;22.40;21.80;;;;;;2263551;61;20950;-67
2024/03/07 07:23:21;0.00;0.00;0.62;0.00;0.00;0.62;9.63;7.30;;;22.50;21.80;;;;;;2263441;61;20403;-67
2024/03/07 07:26:06;0.00;0.00;0.62;0.00;0.00;0.62;8.53;7.63;;;22.50;21.80;;;;;;2529417;53;20385;-68
2024/03/07 07:28:53;0.00;0.00;0.62;0.00;0.00;0.62;8.33;7.50;;;22.40;21.80;;;;;;2262234;61;20392;-68
2024/03/07 07:31:38;0.00;0.00;0.62;0.00;0.00;0.62;9.43;8.43;;;22.40;21.80;;;;;;2530365;45;20958;-68
2024/03/07 07:34:23;0.00;0.00;0.62;0.00;0.00;0.62;10.83;8.67;;;22.40;21.80;;;;;;2263980;61;20364;-68
2024/03/07 07:37:09;0.00;0.00;0.62;0.00;0.00;0.62;10.53;8.57;;;22.40;22.30;;;;;;2711812;45;20361;-68
2024/03/07 07:39:54;0.00;0.00;0.62;0.00;0.00;0.62;12.30;9.03;;;22.40;21.80;;;;;;2262456;61;20368;-68
2024/03/07 07:42:39;0.00;0.00;0.62;0.00;0.00;0.62;11.50;9.13;;;22.40;21.80;;;;;;2263514;61;20364;-68
2024/03/07 07:45:24;0.00;0.00;0.62;0.00;0.00;0.62;13.20;9.80;;;22.40;21.80;;;;;;2263520;61;20359;-70
2024/03/07 07:48:11;0.00;0.00;0.62;0.00;0.00;0.62;11.40;9.60;;;22.40;21.80;;;;;;2643144;45;20387;-68
2024/03/07 07:50:56;0.00;0.00;0.62;0.00;0.00;0.62;14.47;10.80;;;22.40;21.80;;;;;;2263757;61;20371;-70
2024/03/07 07:53:43;0.00;0.00;0.62;0.00;0.00;0.62;13.03;11.27;;;22.40;21.80;;;;;;2263226;61;20882;-68
2024/03/07 07:56:28;0.00;0.00;0.62;0.00;0.00;0.62;12.80;10.37;;;22.40;21.80;;;;;;2260763;61;20395;-68
2024/03/07 07:59:13;0.00;0.00;0.62;0.00;0.00;0.62;13.70;10.60;;;22.40;21.80;;;;;;2562582;45;20727;-68
2024/03/07 08:01:57;0.00;0.00;0.62;0.00;0.00;0.62;11.17;10.07;;;22.40;21.80;;;;;;2414219;45;20912;-67
2024/03/07 08:04:42;0.00;0.00;0.62;0.00;0.00;0.62;15.63;10.67;;;22.30;21.80;;;;;;2263254;61;20415;-68
2024/03/07 08:07:26;0.00;0.00;0.62;0.00;0.00;0.62;12.13;10.03;;;22.30;21.80;;;;;;2263843;61;20415;-68
2024/03/07 08:10:12;0.00;0.00;0.62;0.00;0.00;0.62;16.13;12.70;;;22.30;21.80;;;;;;2505375;53;20725;-67
2024/03/07 08:12:57;0.00;0.00;0.62;0.00;0.00;0.62;12.27;10.60;;;22.30;21.80;;;;;;2263038;61;20852;-68
2024/03/07 08:15:42;0.00;0.00;0.62;0.00;0.00;0.62;13.13;9.50;;;22.30;21.90;;;;;;2550408;45;20854;-68
2024/03/07 08:18:27;0.00;0.00;0.62;0.00;0.00;0.62;11.90;10.47;;;22.30;21.90;;;;;;2263921;61;20376;-68
2024/03/07 08:21:11;0.00;0.00;0.62;0.00;0.00;0.62;14.10;10.43;;;22.30;21.90;;;;;;2263594;61;20446;-67
2024/03/07 08:23:58;0.00;0.00;0.62;0.00;0.00;0.62;10.60;8.90;;;22.30;21.90;;;;;;2263473;61;20948;-68
2024/03/07 08:26:44;0.00;0.00;0.62;0.00;0.00;0.62;10.50;9.40;;;22.30;21.90;;;;;;2263232;61;20848;-68
2024/03/07 08:29:29;0.00;0.00;0.62;0.00;0.00;0.62;12.20;9.10;;;22.30;21.90;;;;;;2263794;61;20446;-67
2024/03/07 08:32:14;0.00;0.00;0.62;0.00;0.00;0.62;10.40;9.20;;;22.20;21.90;;;;;;2263235;61;20430;-68
2024/03/07 08:34:58;0.00;0.00;0.62;0.00;0.00;0.62;11.13;9.00;;;22.20;21.90;;;;;;2263407;61;20450;-68
2024/03/07 08:37:44;0.00;0.00;0.62;0.00;0.00;0.62;9.83;8.67;;;22.30;22.00;;;;;;2263534;61;20388;-68
2024/03/07 08:40:32;0.00;0.00;0.62;0.00;0.00;0.62;10.77;9.13;;;22.20;22.00;;;;;;2263852;61;20440;-67
2024/03/07 08:43:17;0.00;0.00;0.62;0.00;0.00;0.62;11.00;8.30;;;22.20;22.00;;;;;;2263246;61;20419;-68
2024/03/07 08:46:02;0.00;0.00;0.62;0.00;0.00;0.62;11.30;9.00;;;22.20;22.00;;;;;;2263173;61;20825;-68
2024/03/07 08:48:48;0.00;0.00;0.62;0.00;0.00;0.62;9.40;7.73;;;22.20;22.00;;;;;;2263123;61;20392;-68
2024/03/07 08:51:33;0.00;0.00;0.62;0.00;0.00;0.62;10.57;8.33;;;22.20;22.00;;;;;;2263677;61;20449;-68
2024/03/07 08:54:17;0.00;0.00;0.62;0.00;0.00;0.62;9.30;7.87;;;22.20;22.00;;;;;;2263308;61;20368;-68
2024/03/07 08:57:02;0.00;0.00;0.62;0.00;0.00;0.62;8.33;7.53;;;22.20;22.00;;;;;;2263411;61;20363;-67
2024/03/07 08:59:48;0.00;0.00;0.62;0.00;0.00;0.62;9.50;7.60;;;22.20;22.00;;;;;;2263190;61;20355;-68
2024/03/07 09:02:34;0.00;0.00;0.62;0.00;0.00;0.62;9.07;7.67;;;22.20;22.50;;;;;;2263800;61;20371;-68
2024/03/07 09:05:21;0.00;0.00;0.62;0.00;0.00;0.62;9.00;7.70;;;22.20;22.00;;;;;;2263444;61;20428;-67
2024/03/07 09:08:07;0.00;0.00;0.62;0.00;0.00;0.62;10.33;7.80;;;22.20;22.00;;;;;;2262500;61;20416;-68
2024/03/07 09:10:54;0.00;0.00;0.62;0.00;0.00;0.62;8.60;6.83;;;22.20;22.00;;;;;;2263414;61;20932;-67
2024/03/07 09:13:40;0.00;0.00;0.62;0.00;0.00;0.62;10.57;8.43;;;22.20;22.10;;;;;;2263612;61;20863;-68
2024/03/07 09:16:26;0.00;0.00;0.62;0.00;0.00;0.62;7.37;6.63;;;22.20;22.10;;;;;;2263020;61;20368;-68
2024/03/07 09:19:13;0.00;0.00;0.62;0.00;0.00;0.62;9.90;7.77;;;22.20;22.10;;;;;;2263299;61;20462;-67
2024/03/07 09:21:59;0.00;0.00;0.62;0.00;0.00;0.62;9.37;7.30;;;22.20;22.10;;;;;;2263352;61;20923;-68
2024/03/07 09:24:44;0.00;0.00;0.62;0.00;0.00;0.62;8.70;6.60;;;22.20;22.10;;;;;;2263681;61;20498;-68
2024/03/07 09:27:29;0.00;0.00;0.62;0.00;0.00;0.62;8.47;7.30;;;22.20;22.10;;;;;;2263209;61;20388;-67
2024/03/07 09:30:24;0.00;0.00;0.62;0.00;0.00;0.62;8.20;6.50;;;22.20;22.10;;;;;;2262999;61;20399;-68
2024/03/07 09:33:10;0.00;0.00;0.62;0.00;0.00;0.62;8.20;6.60;;;22.20;22.10;;;;;;2262608;61;20426;-68
2024/03/07 09:35:55;0.00;0.00;0.62;0.00;0.00;0.62;8.20;6.47;;;22.20;22.10;;;;;;2263566;61;20368;-67
2024/03/07 09:38:39;0.00;0.00;0.62;0.00;0.00;0.62;7.30;6.10;;;22.20;22.10;;;;;;2263024;61;20989;-67
2024/03/07 09:41:25;0.00;0.00;0.62;0.00;0.00;0.62;8.83;6.97;;;22.20;22.10;;;;;;2263265;61;20761;-67
2024/03/07 09:44:11;0.00;0.00;0.62;0.00;0.00;0.62;7.83;6.53;;;22.20;22.10;;;;;;2263053;61;20478;-68
2024/03/07 09:46:58;0.00;0.00;0.62;0.00;0.00;0.62;6.93;6.23;;;22.20;22.10;;;;;;2263572;61;20368;-67
2024/03/07 09:49:45;0.00;0.00;0.62;0.00;0.00;0.62;7.13;6.33;;;22.20;22.10;;;;;;2258529;61;20403;-67
2024/03/07 09:52:30;0.00;0.00;0.62;0.00;0.00;0.62;7.40;5.93;;;22.20;22.10;;;;;;2262931;61;20471;-67
2024/03/07 09:55:15;0.00;0.00;0.62;0.00;0.00;0.62;7.30;6.20;;;22.20;22.10;;;;;;2263183;61;20380;-68
2024/03/07 09:58:04;0.00;0.00;0.62;0.00;0.00;0.62;7.03;6.33;;;22.20;22.10;;;;;;2263590;61;20406;-68
2024/03/07 10:00:50;0.00;0.00;0.62;0.00;0.00;0.62;7.90;6.90;;;22.20;22.10;;;;;;2262975;61;20368;-68
2024/03/07 10:03:36;0.00;0.00;0.62;0.00;0.00;0.62;7.33;5.87;;;22.20;22.10;;;;;;2263324;61;20483;-68
2024/03/07 10:06:23;0.00;0.00;0.62;0.00;0.00;0.62;7.43;6.50;;;22.20;22.10;;;;;;2263008;61;20511;-68
2024/03/07 10:09:09;0.00;0.00;0.62;0.00;0.00;0.62;8.00;6.20;;;22.20;22.10;;;;;;2263274;61;20449;-68
2024/03/07 10:11:57;0.00;0.00;0.62;0.00;0.00;0.62;8.90;5.87;;;22.20;22.20;;;;;;2263132;61;20418;-67
2024/03/07 10:14:50;0.00;0.00;0.62;0.00;0.00;0.62;9.57;6.13;;;22.20;22.20;;;;;;2262936;61;20368;-68
2024/03/07 10:17:35;0.00;0.00;0.62;0.00;0.00;0.62;6.97;6.23;;;22.20;22.20;;;;;;2263165;61;20442;-68
2024/03/07 10:20:22;0.00;0.00;0.62;0.00;0.00;0.62;7.03;6.33;;;22.20;22.20;;;;;;2263440;61;20453;-67
2024/03/07 10:23:07;0.00;0.00;0.62;0.00;0.00;0.62;7.53;6.43;;;22.20;22.20;;;;;;2262897;61;20368;-68
2024/03/07 10:25:54;0.00;0.00;0.62;0.00;0.00;0.62;6.87;5.73;;;22.20;22.20;;;;;;2262947;61;20368;-67
2024/03/07 10:28:39;0.00;0.00;0.62;0.00;0.00;0.62;7.47;6.67;;;22.20;22.20;;;;;;2262811;61;20391;-68
2024/03/07 10:31:30;0.00;0.00;0.62;0.00;0.00;0.62;7.70;6.20;;;22.20;22.70;;;;;;2263448;61;20430;-68
2024/03/07 10:34:15;0.00;0.00;0.62;0.00;0.00;0.62;7.33;6.27;;;22.20;22.20;;;;;;2263125;61;20368;-68
2024/03/07 10:37:03;0.00;0.00;0.62;0.00;0.00;0.62;9.40;6.70;;;22.20;22.20;;;;;;2263125;61;20380;-68
2024/03/07 10:39:49;0.00;0.00;0.62;0.00;0.00;0.62;9.20;7.10;;;22.20;22.20;;;;;;2263196;61;20832;-68
2024/03/07 10:42:37;0.00;0.00;0.62;0.00;0.00;0.62;9.03;8.10;;;22.20;22.20;;;;;;2263536;61;20395;-67
2024/03/07 10:45:23;0.00;0.00;0.62;0.00;0.00;0.62;9.93;8.20;;;22.20;22.20;;;;;;2263052;61;20391;-67
2024/03/07 10:48:11;0.00;0.00;0.62;0.00;0.00;0.62;10.53;8.60;;;22.20;22.20;;;;;;2263063;61;20911;-68
2024/03/07 10:51:09;0.00;0.00;0.62;0.00;0.00;0.62;10.60;9.43;;;22.20;22.20;;;;;;2263175;61;20435;-68
2024/03/07 10:54:09;0.00;0.00;0.62;0.00;0.00;0.62;10.97;9.70;;;22.30;22.20;;;;;;2264186;61;21075;-68